Time,TemperatureF,DewpointF,PressureIn,WindDirection,WindDirectionDegrees,WindSpeedMPH,WindSpeedGustMPH,Humidity,HourlyPrecipIn,Conditions,Clouds,dailyrainin,SoftwareType,DateUTC
2013-01-16 00:00:00,42.3,41.8,30.10,ENE,60,0.0,0.0,98,0.00,,,0.00,Wunderground v.1.15,2013-01-16 05:00:00,
2013-01-16 00:05:00,42.2,41.7,30.10,ENE,60,0.0,0.0,98,0.00,,,0.00,Wunderground v.1.15,2013-01-16 05:05:00,
2013-01-16 00:10:00,42.2,41.7,30.10,ENE,60,0.0,0.0,98,0.00,,,0.00,Wunderground v.1.15,2013-01-16 05:10:00,
2013-01-16 00:15:00,42.2,41.7,30.09,ENE,60,0.0,0.0,98,0.00,,,0.00,Wunderground v.1.15,2013-01-16 05:15:00,
2013-01-16 00:20:00,42.2,41.7,30.09,ENE,60,0.0,0.0,98,0.00,,,0.00,Wunderground v.1.15,2013-01-16 05:20:00,
2013-01-16 00:25:00,42.2,41.7,30.09,ENE,60,0.0,0.0,98,0.00,,,0.00,Wunderground v.1.15,2013-01-16 05:25:00,
2013-01-16 00:30:00,42.2,41.7,30.09,ENE,60,0.0,0.0,98,0.00,,,0.00,Wunderground v.1.15,2013-01-16 05:30:00,
2013-01-16 00:35:00,42.2,41.7,30.08,ENE,60,0.0,0.0,98,0.00,,,0.00,Wunderground v.1.15,2013-01-16 05:35:00,
2013-01-16 00:40:00,42.2,41.7,30.09,ENE,60,0.0,0.0,98,0.00,,,0.00,Wunderground v.1.15,2013-01-16 05:40:00,
2013-01-16 00:50:00,42.3,41.8,30.08,ENE,60,0.0,0.0,98,0.00,,,0.00,Wunderground v.1.15,2013-01-16 05:50:00,
2013-01-16 01:00:00,42.2,41.7,30.08,NE,44,0.0,0.0,98,0.00,,,0.00,Wunderground v.1.15,2013-01-16 06:00:00,
2013-01-16 01:05:00,42.3,41.8,30.09,North,11,0.0,0.0,98,0.00,,,0.00,Wunderground v.1.15,2013-01-16 06:05:00,
2013-01-16 01:10:00,42.4,41.9,30.09,North,11,0.0,0.0,98,0.00,,,0.00,Wunderground v.1.15,2013-01-16 06:10:00,
2013-01-16 01:15:00,42.3,41.8,30.09,North,11,0.0,0.0,98,0.00,,,0.00,Wunderground v.1.15,2013-01-16 06:15:00,
2013-01-16 01:20:00,42.3,41.8,30.09,North,11,0.0,0.0,98,0.00,,,0.00,Wunderground v.1.15,2013-01-16 06:20:00,
2013-01-16 01:25:00,42.3,41.8,30.09,NW,309,0.0,0.0,98,0.00,,,0.00,Wunderground v.1.15,2013-01-16 06:25:00,
2013-01-16 01:30:00,42.3,41.8,30.09,NW,309,0.0,0.0,98,0.00,,,0.00,Wunderground v.1.15,2013-01-16 06:30:00,
2013-01-16 01:35:00,42.3,41.8,30.09,NW,309,0.0,0.0,98,0.00,,,0.00,Wunderground v.1.15,2013-01-16 06:35:00,
2013-01-16 01:40:00,42.3,41.8,30.09,NW,309,0.0,0.0,98,0.00,,,0.00,Wunderground v.1.15,2013-01-16 06:40:00,
2013-01-16 01:45:00,42.3,41.8,30.09,NW,309,0.0,0.0,98,0.00,,,0.00,Wunderground v.1.15,2013-01-16 06:45:00,
2013-01-16 01:50:00,42.3,41.8,30.09,NNW,333,0.0,0.0,98,0.00,,,0.00,Wunderground v.1.15,2013-01-16 06:50:00,
2013-01-16 01:55:00,42.3,41.8,30.09,NNW,336,0.0,0.0,98,0.00,,,0.00,Wunderground v.1.15,2013-01-16 06:55:00,
2013-01-16 02:00:00,42.3,41.8,30.09,NNW,336,0.0,0.0,98,0.00,,,0.00,Wunderground v.1.15,2013-01-16 07:00:00,
2013-01-16 02:05:00,42.3,41.8,30.09,NNW,336,0.0,0.0,98,0.00,,,0.00,Wunderground v.1.15,2013-01-16 07:05:00,
2013-01-16 02:10:00,42.3,41.8,30.09,NNW,336,0.0,0.0,98,0.00,,,0.00,Wunderground v.1.15,2013-01-16 07:10:00,
2013-01-16 02:20:00,42.3,41.8,30.10,NNW,337,0.0,0.0,98,0.00,,,0.00,Wunderground v.1.15,2013-01-16 07:20:00,
2013-01-16 02:25:00,42.2,41.7,30.09,NNW,336,0.0,0.0,98,0.00,,,0.00,Wunderground v.1.15,2013-01-16 07:25:00,
2013-01-16 02:30:00,42.2,41.7,30.09,NNW,336,0.0,0.0,98,0.00,,,0.00,Wunderground v.1.15,2013-01-16 07:30:00,
2013-01-16 02:35:00,42.2,41.7,30.10,NW,305,0.0,0.0,98,0.00,,,0.00,Wunderground v.1.15,2013-01-16 07:35:00,
2013-01-16 02:40:00,42.2,41.7,30.09,NW,305,0.0,0.0,98,0.00,,,0.00,Wunderground v.1.15,2013-01-16 07:40:00,
2013-01-16 02:45:00,42.2,41.7,30.09,NW,305,0.0,0.0,98,0.00,,,0.00,Wunderground v.1.15,2013-01-16 07:45:00,
2013-01-16 02:50:00,42.1,41.6,30.09,NNW,336,0.0,4.0,98,0.00,,,0.00,Wunderground v.1.15,2013-01-16 07:50:00,
2013-01-16 02:55:00,42.0,41.5,30.09,West,271,0.0,4.0,98,0.00,,,0.00,Wunderground v.1.15,2013-01-16 07:55:00,
2013-01-16 03:00:00,42.0,41.5,30.09,West,271,0.0,0.0,98,0.00,,,0.00,Wunderground v.1.15,2013-01-16 08:00:00,
2013-01-16 03:05:00,41.9,41.4,30.08,West,272,0.0,0.0,98,0.00,,,0.00,Wunderground v.1.15,2013-01-16 08:05:00,
2013-01-16 03:10:00,41.9,41.4,30.09,West,272,0.0,0.0,98,0.00,,,0.00,Wunderground v.1.15,2013-01-16 08:10:00,
2013-01-16 03:15:00,41.9,41.4,30.08,West,272,0.0,0.0,98,0.00,,,0.00,Wunderground v.1.15,2013-01-16 08:15:00,
2013-01-16 03:20:00,41.8,41.3,30.09,West,272,0.0,0.0,98,0.00,,,0.00,Wunderground v.1.15,2013-01-16 08:20:00,
2013-01-16 03:25:00,41.8,41.3,30.09,WSW,257,0.0,0.0,98,0.00,,,0.00,Wunderground v.1.15,2013-01-16 08:25:00,
2013-01-16 03:30:00,41.6,41.1,30.09,NNW,340,0.0,2.0,98,0.00,,,0.00,Wunderground v.1.15,2013-01-16 08:30:00,
2013-01-16 03:35:00,41.5,40.7,30.09,West,264,0.0,2.0,97,0.00,,,0.00,Wunderground v.1.15,2013-01-16 08:35:00,
2013-01-16 03:40:00,41.4,40.6,30.10,West,279,0.0,0.0,97,0.00,,,0.00,Wunderground v.1.15,2013-01-16 08:40:00,
2013-01-16 03:45:00,41.4,40.9,30.09,West,275,0.0,0.0,98,0.00,,,0.00,Wunderground v.1.15,2013-01-16 08:45:00,
2013-01-16 03:50:00,41.3,40.5,30.08,WNW,288,0.0,0.0,97,0.00,,,0.00,Wunderground v.1.15,2013-01-16 08:50:00,
2013-01-16 04:00:00,40.9,40.4,30.08,NW,305,0.0,0.0,98,0.00,,,0.00,Wunderground v.1.15,2013-01-16 09:00:00,
2013-01-16 04:10:00,40.6,39.8,30.08,West,259,0.0,0.0,97,0.00,,,0.00,Wunderground v.1.15,2013-01-16 09:10:00,
2013-01-16 04:15:00,40.5,40.0,30.08,WNW,289,0.0,2.0,98,0.00,,,0.00,Wunderground v.1.15,2013-01-16 09:15:00,
2013-01-16 04:20:00,40.3,39.5,30.08,ENE,58,1.0,3.0,97,0.00,,,0.00,Wunderground v.1.15,2013-01-16 09:20:00,
2013-01-16 04:25:00,40.2,39.4,30.08,West,260,1.0,3.0,97,0.00,,,0.00,Wunderground v.1.15,2013-01-16 09:25:00,
2013-01-16 04:30:00,40.0,39.2,30.08,West,278,1.0,1.0,97,0.00,,,0.00,Wunderground v.1.15,2013-01-16 09:30:00,
2013-01-16 04:40:00,39.7,38.9,30.07,WNW,294,1.0,1.0,97,0.00,,,0.00,Wunderground v.1.15,2013-01-16 09:40:00,
2013-01-16 04:45:00,39.6,38.8,30.07,WNW,294,0.0,1.0,97,0.00,,,0.00,Wunderground v.1.15,2013-01-16 09:45:00,
2013-01-16 04:50:00,39.6,38.8,30.07,WNW,300,0.0,0.0,97,0.00,,,0.00,Wunderground v.1.15,2013-01-16 09:50:00,
2013-01-16 04:55:00,39.5,38.7,30.07,WNW,300,0.0,0.0,97,0.00,,,0.00,Wunderground v.1.15,2013-01-16 09:55:00,
2013-01-16 05:00:00,39.5,38.7,30.07,NW,311,0.0,0.0,97,0.00,,,0.00,Wunderground v.1.15,2013-01-16 10:00:00,
2013-01-16 05:05:00,39.5,38.7,30.07,NW,310,0.0,0.0,97,0.00,,,0.00,Wunderground v.1.15,2013-01-16 10:05:00,
2013-01-16 05:10:00,39.5,38.7,30.07,NW,310,0.0,0.0,97,0.00,,,0.00,Wunderground v.1.15,2013-01-16 10:10:00,
2013-01-16 05:15:00,39.4,38.6,30.06,NW,310,0.0,0.0,97,0.00,,,0.00,Wunderground v.1.15,2013-01-16 10:15:00,
2013-01-16 05:20:00,39.4,38.6,30.06,NE,45,0.0,0.0,97,0.00,,,0.00,Wunderground v.1.15,2013-01-16 10:20:00,
2013-01-16 05:25:00,39.3,38.5,30.05,NNE,16,0.0,0.0,97,0.00,,,0.00,Wunderground v.1.15,2013-01-16 10:25:00,
2013-01-16 05:30:00,39.3,38.5,30.06,NNE,15,0.0,0.0,97,0.00,,,0.00,Wunderground v.1.15,2013-01-16 10:30:00,
2013-01-16 05:35:00,39.3,38.5,30.05,NNE,15,0.0,0.0,97,0.00,,,0.00,Wunderground v.1.15,2013-01-16 10:35:00,
2013-01-16 05:40:00,39.3,38.5,30.05,NNE,15,0.0,0.0,97,0.00,,,0.00,Wunderground v.1.15,2013-01-16 10:40:00,
2013-01-16 05:45:00,39.4,38.6,30.05,NNE,15,0.0,0.0,97,0.00,,,0.00,Wunderground v.1.15,2013-01-16 10:45:00,
2013-01-16 05:50:00,39.4,38.6,30.05,NNE,15,0.0,0.0,97,0.00,,,0.00,Wunderground v.1.15,2013-01-16 10:50:00,
2013-01-16 05:55:00,39.5,38.7,30.05,NNE,15,0.0,0.0,97,0.00,,,0.00,Wunderground v.1.15,2013-01-16 10:55:00,
2013-01-16 06:00:00,39.5,38.7,30.05,NNE,15,0.0,0.0,97,0.00,,,0.00,Wunderground v.1.15,2013-01-16 11:00:00,
2013-01-16 06:05:00,39.5,38.7,30.05,NNE,15,0.0,0.0,97,0.00,,,0.00,Wunderground v.1.15,2013-01-16 11:05:00,
2013-01-16 06:10:00,39.5,38.7,30.05,NNE,15,0.0,0.0,97,0.00,,,0.00,Wunderground v.1.15,2013-01-16 11:10:00,
2013-01-16 06:15:00,39.5,38.7,30.05,NW,306,0.0,0.0,97,0.00,,,0.00,Wunderground v.1.15,2013-01-16 11:15:00,
2013-01-16 06:20:00,39.6,38.8,30.05,NW,306,0.0,0.0,97,0.00,,,0.00,Wunderground v.1.15,2013-01-16 11:20:00,
2013-01-16 06:25:00,39.6,38.8,30.05,NW,325,0.0,0.0,97,0.00,,,0.00,Wunderground v.1.15,2013-01-16 11:25:00,
2013-01-16 06:30:00,39.6,38.8,30.05,NW,325,0.0,0.0,97,0.00,,,0.00,Wunderground v.1.15,2013-01-16 11:30:00,
2013-01-16 06:35:00,39.6,38.8,30.05,NW,325,0.0,0.0,97,0.00,,,0.00,Wunderground v.1.15,2013-01-16 11:35:00,
2013-01-16 06:40:00,39.5,38.7,30.06,NW,325,0.0,0.0,97,0.00,,,0.00,Wunderground v.1.15,2013-01-16 11:40:00,
2013-01-16 06:45:00,39.5,38.7,30.06,NW,325,0.0,0.0,97,0.00,,,0.00,Wunderground v.1.15,2013-01-16 11:45:00,
2013-01-16 06:50:00,39.5,38.7,30.06,NW,325,0.0,0.0,97,0.00,,,0.00,Wunderground v.1.15,2013-01-16 11:50:00,
2013-01-16 06:55:00,39.5,38.7,30.06,NW,325,0.0,0.0,97,0.00,,,0.00,Wunderground v.1.15,2013-01-16 11:55:00,
2013-01-16 07:00:00,39.5,38.7,30.06,NW,325,0.0,0.0,97,0.00,,,0.00,Wunderground v.1.15,2013-01-16 12:00:00,
2013-01-16 07:05:00,39.5,38.7,30.06,NW,325,0.0,0.0,97,0.00,,,0.00,Wunderground v.1.15,2013-01-16 12:05:00,
2013-01-16 07:10:00,39.6,38.8,30.06,NW,325,0.0,0.0,97,0.00,,,0.00,Wunderground v.1.15,2013-01-16 12:10:00,
2013-01-16 07:15:00,39.6,38.8,30.06,NW,325,0.0,0.0,97,0.00,,,0.00,Wunderground v.1.15,2013-01-16 12:15:00,
2013-01-16 07:20:00,39.6,38.8,30.06,NW,325,0.0,0.0,97,0.00,,,0.00,Wunderground v.1.15,2013-01-16 12:20:00,
2013-01-16 07:25:00,39.7,38.9,30.06,NW,325,0.0,0.0,97,0.00,,,0.00,Wunderground v.1.15,2013-01-16 12:25:00,
2013-01-16 07:30:00,39.7,38.9,30.07,NW,325,0.0,0.0,97,0.00,,,0.00,Wunderground v.1.15,2013-01-16 12:30:00,
2013-01-16 07:35:00,39.7,38.9,30.07,NW,325,0.0,0.0,97,0.00,,,0.00,Wunderground v.1.15,2013-01-16 12:35:00,
2013-01-16 07:40:00,39.7,38.9,30.06,NW,325,0.0,0.0,97,0.00,,,0.00,Wunderground v.1.15,2013-01-16 12:40:00,
2013-01-16 07:45:00,39.7,38.9,30.06,NW,325,0.0,0.0,97,0.00,,,0.00,Wunderground v.1.15,2013-01-16 12:45:00,
2013-01-16 07:50:00,39.7,38.9,30.06,NW,325,0.0,0.0,97,0.00,,,0.00,Wunderground v.1.15,2013-01-16 12:50:00,
2013-01-16 08:00:00,39.6,38.8,30.06,NW,325,0.0,0.0,97,0.00,,,0.00,Wunderground v.1.15,2013-01-16 13:00:00,
2013-01-16 08:10:00,39.7,38.9,30.07,NW,325,0.0,0.0,97,0.00,,,0.00,Wunderground v.1.15,2013-01-16 13:10:00,
2013-01-16 08:20:00,39.8,39.3,30.07,NW,325,0.0,0.0,98,0.00,,,0.00,Wunderground v.1.15,2013-01-16 13:20:00,
2013-01-16 08:25:00,39.8,39.3,30.07,NW,325,0.0,0.0,98,0.00,,,0.00,Wunderground v.1.15,2013-01-16 13:25:00,
2013-01-16 08:30:00,39.8,39.3,30.07,NW,325,0.0,0.0,98,0.00,,,0.00,Wunderground v.1.15,2013-01-16 13:30:00,
2013-01-16 08:35:00,39.8,39.3,30.07,NW,325,0.0,0.0,98,0.00,,,0.00,Wunderground v.1.15,2013-01-16 13:35:00,
2013-01-16 08:40:00,39.8,39.3,30.07,NW,325,0.0,0.0,98,0.00,,,0.00,Wunderground v.1.15,2013-01-16 13:40:00,
2013-01-16 08:50:00,39.8,39.3,30.07,NW,325,0.0,0.0,98,0.00,,,0.00,Wunderground v.1.15,2013-01-16 13:50:00,
2013-01-16 09:00:00,40.1,39.6,30.07,NW,325,0.0,0.0,98,0.00,,,0.00,Wunderground v.1.15,2013-01-16 14:00:00,
2013-01-16 09:05:00,40.1,39.3,30.08,NW,325,0.0,0.0,97,0.00,,,0.00,Wunderground v.1.15,2013-01-16 14:05:00,
2013-01-16 09:10:00,40.2,39.4,30.07,NW,325,0.0,0.0,97,0.00,,,0.00,Wunderground v.1.15,2013-01-16 14:10:00,
2013-01-16 09:15:00,40.3,39.5,30.07,NW,325,0.0,0.0,97,0.00,,,0.00,Wunderground v.1.15,2013-01-16 14:15:00,
2013-01-16 09:20:00,40.4,39.6,30.07,ENE,69,0.0,0.0,97,0.00,,,0.00,Wunderground v.1.15,2013-01-16 14:20:00,
2013-01-16 09:30:00,40.5,40.0,30.07,ENE,76,0.0,0.0,98,0.00,,,0.00,Wunderground v.1.15,2013-01-16 14:30:00,
2013-01-16 09:35:00,40.6,40.1,30.07,ENE,76,0.0,0.0,98,0.00,,,0.00,Wunderground v.1.15,2013-01-16 14:35:00,
2013-01-16 09:40:00,40.8,40.3,30.07,ENE,76,0.0,0.0,98,0.00,,,0.00,Wunderground v.1.15,2013-01-16 14:40:00,
2013-01-16 09:45:00,40.9,40.4,30.07,ENE,74,0.0,0.0,98,0.00,,,0.00,Wunderground v.1.15,2013-01-16 14:45:00,
2013-01-16 09:50:00,40.9,40.4,30.09,ENE,74,0.0,0.0,98,0.00,,,0.00,Wunderground v.1.15,2013-01-16 14:50:00,
2013-01-16 10:00:00,41.0,40.5,30.09,ENE,74,0.0,0.0,98,0.00,,,0.00,Wunderground v.1.15,2013-01-16 15:00:00,
2013-01-16 10:05:00,41.2,40.7,30.08,ENE,74,0.0,0.0,98,0.00,,,0.00,Wunderground v.1.15,2013-01-16 15:05:00,
2013-01-16 10:10:00,41.3,40.8,30.08,ENE,74,0.0,0.0,98,0.00,,,0.00,Wunderground v.1.15,2013-01-16 15:10:00,
2013-01-16 10:15:00,41.4,40.9,30.09,ENE,74,0.0,0.0,98,0.00,,,0.00,Wunderground v.1.15,2013-01-16 15:15:00,
2013-01-16 10:20:00,41.5,41.0,30.09,NW,322,0.0,0.0,98,0.00,,,0.00,Wunderground v.1.15,2013-01-16 15:20:00,
2013-01-16 10:25:00,41.5,41.0,30.09,NW,323,0.0,0.0,98,0.00,,,0.00,Wunderground v.1.15,2013-01-16 15:25:00,
2013-01-16 10:30:00,41.6,41.1,30.09,NW,323,0.0,0.0,98,0.00,,,0.00,Wunderground v.1.15,2013-01-16 15:30:00,
2013-01-16 10:35:00,41.6,41.1,30.09,NW,323,0.0,0.0,98,0.00,,,0.00,Wunderground v.1.15,2013-01-16 15:35:00,
2013-01-16 10:40:00,41.6,41.1,30.09,NW,323,0.0,0.0,98,0.00,,,0.00,Wunderground v.1.15,2013-01-16 15:40:00,
2013-01-16 10:45:00,41.8,41.3,30.09,NW,323,0.0,0.0,98,0.00,,,0.00,Wunderground v.1.15,2013-01-16 15:45:00,
2013-01-16 10:50:00,41.7,41.2,30.10,WNW,293,1.0,2.0,98,0.00,,,0.00,Wunderground v.1.15,2013-01-16 15:50:00,
2013-01-16 10:55:00,41.7,41.2,30.10,WNW,293,1.0,2.0,98,0.00,,,0.00,Wunderground v.1.15,2013-01-16 15:55:00,
2013-01-16 11:00:00,41.5,41.0,30.10,West,278,0.0,0.0,98,0.00,,,0.00,Wunderground v.1.15,2013-01-16 16:00:00,
2013-01-16 11:05:00,41.4,40.6,30.10,NW,315,0.0,0.0,97,0.00,,,0.00,Wunderground v.1.15,2013-01-16 16:05:00,
2013-01-16 11:10:00,41.4,40.6,30.10,NNW,342,0.0,0.0,97,0.00,,,0.00,Wunderground v.1.15,2013-01-16 16:10:00,
2013-01-16 11:20:00,41.1,40.6,30.10,WNW,293,0.0,0.0,98,0.00,,,0.00,Wunderground v.1.15,2013-01-16 16:20:00,
2013-01-16 11:25:00,41.1,40.6,30.10,NW,313,0.0,1.0,98,0.00,,,0.00,Wunderground v.1.15,2013-01-16 16:25:00,
2013-01-16 11:30:00,41.0,40.5,30.09,North,5,1.0,1.0,98,0.00,,,0.00,Wunderground v.1.15,2013-01-16 16:30:00,
2013-01-16 11:35:00,40.9,40.4,30.09,WNW,303,1.0,1.0,98,0.00,,,0.00,Wunderground v.1.15,2013-01-16 16:35:00,
2013-01-16 11:40:00,41.0,40.2,30.09,West,259,0.0,1.0,97,0.00,,,0.00,Wunderground v.1.15,2013-01-16 16:40:00,
2013-01-16 11:45:00,41.0,40.2,30.08,NW,314,0.0,1.0,97,0.00,,,0.00,Wunderground v.1.15,2013-01-16 16:45:00,
2013-01-16 11:50:00,41.0,40.2,30.08,North,360,0.0,0.0,97,0.00,,,0.00,Wunderground v.1.15,2013-01-16 16:50:00,
2013-01-16 12:00:00,40.8,40.0,30.07,North,11,0.0,0.0,97,0.00,,,0.00,Wunderground v.1.15,2013-01-16 17:00:00,
2013-01-16 12:05:00,40.8,40.0,30.06,NNE,13,0.0,0.0,97,0.00,,,0.00,Wunderground v.1.15,2013-01-16 17:05:00,
2013-01-16 12:10:00,40.8,40.0,30.05,NNE,13,0.0,0.0,97,0.00,,,0.00,Wunderground v.1.15,2013-01-16 17:10:00,
2013-01-16 12:20:00,41.0,40.2,30.05,NNE,13,0.0,0.0,97,0.00,,,0.00,Wunderground v.1.15,2013-01-16 17:20:00,
2013-01-16 12:25:00,41.0,40.2,30.05,NNE,13,0.0,0.0,97,0.00,,,0.00,Wunderground v.1.15,2013-01-16 17:25:00,
2013-01-16 12:30:00,41.2,40.4,30.04,NNE,13,0.0,0.0,97,0.00,,,0.00,Wunderground v.1.15,2013-01-16 17:30:00,
2013-01-16 12:35:00,41.3,40.5,30.04,NNE,13,0.0,0.0,97,0.00,,,0.00,Wunderground v.1.15,2013-01-16 17:35:00,
2013-01-16 12:40:00,41.5,40.7,30.04,NNE,13,0.0,0.0,97,0.00,,,0.00,Wunderground v.1.15,2013-01-16 17:40:00,
2013-01-16 12:45:00,41.6,41.1,30.04,NNE,13,0.0,0.0,98,0.00,,,0.00,Wunderground v.1.15,2013-01-16 17:45:00,
2013-01-16 12:50:00,41.8,41.3,30.04,NNE,13,0.0,0.0,98,0.00,,,0.00,Wunderground v.1.15,2013-01-16 17:50:00,
2013-01-16 13:00:00,42.3,41.8,30.03,NNE,13,0.0,0.0,98,0.00,,,0.00,Wunderground v.1.15,2013-01-16 18:00:00,
2013-01-16 13:10:00,42.7,42.2,30.03,NNE,13,0.0,0.0,98,0.00,,,0.00,Wunderground v.1.15,2013-01-16 18:10:00,
2013-01-16 13:20:00,43.3,42.8,30.02,NNE,17,0.0,0.0,98,0.00,,,0.00,Wunderground v.1.15,2013-01-16 18:20:00,
2013-01-16 13:25:00,43.3,42.8,30.02,NNE,17,0.0,0.0,98,0.00,,,0.00,Wunderground v.1.15,2013-01-16 18:25:00,
2013-01-16 13:30:00,43.4,42.9,30.01,NE,46,0.0,0.0,98,0.00,,,0.00,Wunderground v.1.15,2013-01-16 18:30:00,
2013-01-16 13:40:00,44.0,43.5,30.02,SSW,194,0.0,0.0,98,0.00,,,0.00,Wunderground v.1.15,2013-01-16 18:40:00,
2013-01-16 13:45:00,44.0,43.5,30.02,SSW,193,0.0,1.0,98,0.00,,,0.00,Wunderground v.1.15,2013-01-16 18:45:00,
2013-01-16 13:50:00,44.1,43.6,30.02,SSE,155,0.0,0.0,98,0.00,,,0.00,Wunderground v.1.15,2013-01-16 18:50:00,
2013-01-16 14:00:00,44.3,43.8,30.01,SSE,155,0.0,0.0,98,0.00,,,0.00,Wunderground v.1.15,2013-01-16 19:00:00,
2013-01-16 14:05:00,44.4,43.9,30.01,SE,145,0.0,1.0,98,0.00,,,0.00,Wunderground v.1.15,2013-01-16 19:05:00,
2013-01-16 14:10:00,44.4,43.9,30.00,SE,131,0.0,4.0,98,0.00,,,0.00,Wunderground v.1.15,2013-01-16 19:10:00,
2013-01-16 14:15:00,44.4,43.9,30.00,SE,127,1.0,4.0,98,0.00,,,0.00,Wunderground v.1.15,2013-01-16 19:15:00,
2013-01-16 14:20:00,44.6,44.1,30.00,ESE,103,1.0,1.0,98,0.00,,,0.00,Wunderground v.1.15,2013-01-16 19:20:00,
2013-01-16 14:25:00,44.9,44.4,30.00,SSW,207,0.0,1.0,98,0.00,,,0.00,Wunderground v.1.15,2013-01-16 19:25:00,
2013-01-16 14:30:00,45.1,44.6,30.00,SE,126,0.0,0.0,98,0.00,,,0.00,Wunderground v.1.15,2013-01-16 19:30:00,
2013-01-16 14:35:00,45.3,44.8,30.00,SSE,157,0.0,0.0,98,0.00,,,0.00,Wunderground v.1.15,2013-01-16 19:35:00,
2013-01-16 14:40:00,45.5,45.0,30.00,SSE,148,0.0,0.0,98,0.00,,,0.00,Wunderground v.1.15,2013-01-16 19:40:00,
2013-01-16 14:45:00,45.6,45.1,30.00,SE,141,0.0,0.0,98,0.00,,,0.00,Wunderground v.1.15,2013-01-16 19:45:00,
2013-01-16 14:50:00,45.8,45.3,30.00,SE,128,0.0,0.0,98,0.00,,,0.00,Wunderground v.1.15,2013-01-16 19:50:00,
2013-01-16 14:55:00,46.0,45.5,30.00,SE,128,0.0,0.0,98,0.00,,,0.00,Wunderground v.1.15,2013-01-16 19:55:00,
2013-01-16 15:00:00,46.1,45.6,30.00,SSE,167,0.0,0.0,98,0.00,,,0.00,Wunderground v.1.15,2013-01-16 20:00:00,
2013-01-16 15:05:00,46.2,45.7,30.00,SSE,167,0.0,0.0,98,0.00,,,0.00,Wunderground v.1.15,2013-01-16 20:05:00,
2013-01-16 15:10:00,46.4,45.9,30.00,SSE,153,0.0,0.0,98,0.00,,,0.00,Wunderground v.1.15,2013-01-16 20:10:00,
2013-01-16 15:15:00,46.4,45.9,30.01,SSE,153,0.0,0.0,98,0.00,,,0.00,Wunderground v.1.15,2013-01-16 20:15:00,
2013-01-16 15:20:00,46.5,46.0,30.01,SSE,153,0.0,0.0,98,0.00,,,0.00,Wunderground v.1.15,2013-01-16 20:20:00,
2013-01-16 15:25:00,46.6,46.1,30.01,SSE,153,0.0,0.0,98,0.00,,,0.00,Wunderground v.1.15,2013-01-16 20:25:00,
2013-01-16 15:30:00,46.7,46.2,30.01,SSE,153,0.0,0.0,98,0.00,,,0.00,Wunderground v.1.15,2013-01-16 20:30:00,
2013-01-16 15:35:00,46.9,46.4,30.01,SSE,153,0.0,0.0,98,0.00,,,0.00,Wunderground v.1.15,2013-01-16 20:35:00,
2013-01-16 15:40:00,47.0,46.5,30.01,SSE,153,0.0,0.0,98,0.00,,,0.00,Wunderground v.1.15,2013-01-16 20:40:00,
2013-01-16 15:50:00,47.1,46.6,30.02,SSE,164,0.0,0.0,98,0.00,,,0.00,Wunderground v.1.15,2013-01-16 20:50:00,
2013-01-16 15:55:00,47.2,46.7,30.02,ESE,123,0.0,0.0,98,0.00,,,0.00,Wunderground v.1.15,2013-01-16 20:55:00,
2013-01-16 16:00:00,47.3,46.8,30.01,SSE,159,0.0,0.0,98,0.00,,,0.00,Wunderground v.1.15,2013-01-16 21:00:00,
2013-01-16 16:05:00,47.4,46.9,30.01,SSE,159,0.0,0.0,98,0.00,,,0.00,Wunderground v.1.15,2013-01-16 21:05:00,
2013-01-16 16:10:00,47.5,47.0,30.01,SSE,154,0.0,0.0,98,0.00,,,0.00,Wunderground v.1.15,2013-01-16 21:10:00,
2013-01-16 16:15:00,47.5,47.0,30.00,SE,127,0.0,0.0,98,0.00,,,0.00,Wunderground v.1.15,2013-01-16 21:15:00,
2013-01-16 16:20:00,47.6,47.1,30.00,ESE,117,0.0,0.0,98,0.00,,,0.00,Wunderground v.1.15,2013-01-16 21:20:00,
2013-01-16 16:25:00,47.7,47.2,30.00,ESE,113,0.0,0.0,98,0.00,,,0.00,Wunderground v.1.15,2013-01-16 21:25:00,
2013-01-16 16:30:00,47.8,47.3,30.00,SE,145,0.0,0.0,98,0.00,,,0.00,Wunderground v.1.15,2013-01-16 21:30:00,
2013-01-16 16:35:00,47.9,47.4,30.00,ESE,103,0.0,0.0,98,0.00,,,0.00,Wunderground v.1.15,2013-01-16 21:35:00,
2013-01-16 16:40:00,48.0,47.5,30.00,ESE,106,0.0,0.0,98,0.00,,,0.00,Wunderground v.1.15,2013-01-16 21:40:00,
2013-01-16 16:45:00,48.1,47.6,30.00,East,88,0.0,0.0,98,0.00,,,0.00,Wunderground v.1.15,2013-01-16 21:45:00,
2013-01-16 16:50:00,48.1,47.6,30.01,East,88,0.0,0.0,98,0.00,,,0.00,Wunderground v.1.15,2013-01-16 21:50:00,
2013-01-16 16:55:00,48.2,47.7,30.01,East,88,0.0,0.0,98,0.00,,,0.00,Wunderground v.1.15,2013-01-16 21:55:00,
2013-01-16 17:00:00,48.3,47.8,30.01,East,88,0.0,0.0,98,0.00,,,0.00,Wunderground v.1.15,2013-01-16 22:00:00,
2013-01-16 17:05:00,48.3,47.8,30.02,East,88,0.0,0.0,98,0.00,,,0.00,Wunderground v.1.15,2013-01-16 22:05:00,
2013-01-16 17:10:00,48.4,47.9,30.02,East,88,0.0,0.0,98,0.00,,,0.00,Wunderground v.1.15,2013-01-16 22:10:00,
2013-01-16 17:15:00,48.4,47.9,30.02,East,88,0.0,0.0,98,0.00,,,0.00,Wunderground v.1.15,2013-01-16 22:15:00,
2013-01-16 17:20:00,48.3,47.5,30.02,East,88,0.0,0.0,97,0.00,,,0.00,Wunderground v.1.15,2013-01-16 22:20:00,
2013-01-16 17:25:00,48.3,47.5,30.02,East,88,0.0,0.0,97,0.00,,,0.00,Wunderground v.1.15,2013-01-16 22:25:00,
2013-01-16 17:30:00,48.4,47.6,30.02,East,88,0.0,0.0,97,0.00,,,0.00,Wunderground v.1.15,2013-01-16 22:30:00,
2013-01-16 17:35:00,48.3,47.5,30.02,East,88,0.0,0.0,97,0.00,,,0.00,Wunderground v.1.15,2013-01-16 22:35:00,
2013-01-16 17:40:00,48.3,47.5,30.02,East,88,0.0,0.0,97,0.00,,,0.00,Wunderground v.1.15,2013-01-16 22:40:00,
2013-01-16 17:45:00,48.3,47.5,30.02,East,88,0.0,0.0,97,0.00,,,0.00,Wunderground v.1.15,2013-01-16 22:45:00,
2013-01-16 17:50:00,48.3,47.5,30.02,East,88,0.0,0.0,97,0.00,,,0.00,Wunderground v.1.15,2013-01-16 22:50:00,
2013-01-16 18:00:00,48.4,47.6,30.02,WSW,258,0.0,0.0,97,0.00,,,0.00,Wunderground v.1.15,2013-01-16 23:00:00,
2013-01-16 18:05:00,48.3,47.5,30.02,WSW,258,0.0,0.0,97,0.00,,,0.00,Wunderground v.1.15,2013-01-16 23:05:00,
2013-01-16 18:10:00,48.3,47.5,30.02,WSW,254,0.0,0.0,97,0.00,,,0.00,Wunderground v.1.15,2013-01-16 23:10:00,
2013-01-16 18:15:00,48.3,47.5,30.02,South,170,0.0,0.0,97,0.00,,,0.00,Wunderground v.1.15,2013-01-16 23:15:00,
2013-01-16 18:20:00,48.2,47.4,30.02,South,170,0.0,0.0,97,0.00,,,0.00,Wunderground v.1.15,2013-01-16 23:20:00,
2013-01-16 18:25:00,48.2,47.4,30.02,South,185,0.0,0.0,97,0.00,,,0.00,Wunderground v.1.15,2013-01-16 23:25:00,
2013-01-16 18:30:00,48.1,47.3,30.01,South,185,0.0,0.0,97,0.00,,,0.00,Wunderground v.1.15,2013-01-16 23:30:00,
2013-01-16 18:35:00,48.1,47.3,30.02,South,185,0.0,0.0,97,0.00,,,0.00,Wunderground v.1.15,2013-01-16 23:35:00,
2013-01-16 18:40:00,48.1,47.3,30.02,South,185,0.0,0.0,97,0.00,,,0.00,Wunderground v.1.15,2013-01-16 23:40:00,
2013-01-16 18:45:00,48.0,47.2,30.02,SSW,196,0.0,0.0,97,0.00,,,0.00,Wunderground v.1.15,2013-01-16 23:45:00,
2013-01-16 18:50:00,48.0,47.2,30.01,WSW,238,0.0,0.0,97,0.00,,,0.00,Wunderground v.1.15,2013-01-16 23:50:00,
2013-01-16 18:55:00,47.9,47.1,30.01,WSW,238,0.0,0.0,97,0.00,,,0.00,Wunderground v.1.15,2013-01-16 23:55:00,
2013-01-16 19:00:00,47.9,47.1,30.02,SW,236,0.0,0.0,97,0.00,,,0.00,Wunderground v.1.15,2013-01-17 00:00:00,
2013-01-16 19:05:00,48.0,47.2,30.03,SW,233,0.0,0.0,97,0.00,,,0.00,Wunderground v.1.15,2013-01-17 00:05:00,
2013-01-16 19:10:00,48.0,47.2,30.02,SW,233,0.0,0.0,97,0.00,,,0.00,Wunderground v.1.15,2013-01-17 00:10:00,
2013-01-16 19:15:00,48.0,47.5,30.02,SW,233,0.0,0.0,98,0.00,,,0.00,Wunderground v.1.15,2013-01-17 00:15:00,
2013-01-16 19:20:00,48.0,47.5,30.03,SW,233,0.0,0.0,98,0.00,,,0.00,Wunderground v.1.15,2013-01-17 00:20:00,
2013-01-16 19:25:00,48.0,47.5,30.04,WSW,239,0.0,0.0,98,0.00,,,0.00,Wunderground v.1.15,2013-01-17 00:25:00,
2013-01-16 19:30:00,48.0,47.5,30.04,WSW,239,0.0,0.0,98,0.00,,,0.00,Wunderground v.1.15,2013-01-17 00:30:00,
2013-01-16 19:35:00,48.0,47.5,30.03,WSW,239,0.0,0.0,98,0.00,,,0.00,Wunderground v.1.15,2013-01-17 00:35:00,
2013-01-16 19:40:00,48.0,47.5,30.02,WSW,239,0.0,0.0,98,0.00,,,0.00,Wunderground v.1.15,2013-01-17 00:40:00,
2013-01-16 19:45:00,48.0,47.5,30.02,WSW,239,0.0,0.0,98,0.00,,,0.00,Wunderground v.1.15,2013-01-17 00:45:00,
2013-01-16 19:50:00,48.0,47.5,30.02,WSW,239,0.0,0.0,98,0.00,,,0.00,Wunderground v.1.15,2013-01-17 00:50:00,
2013-01-16 19:55:00,48.0,47.5,30.02,WSW,239,0.0,0.0,98,0.00,,,0.00,Wunderground v.1.15,2013-01-17 00:55:00,
2013-01-16 20:00:00,48.0,47.5,30.02,WSW,239,0.0,0.0,98,0.00,,,0.00,Wunderground v.1.15,2013-01-17 01:00:00,
2013-01-16 20:05:00,48.0,47.5,30.02,WSW,239,0.0,0.0,98,0.00,,,0.00,Wunderground v.1.15,2013-01-17 01:05:00,
2013-01-16 20:10:00,48.1,47.6,30.02,WSW,239,0.0,0.0,98,0.00,,,0.00,Wunderground v.1.15,2013-01-17 01:10:00,
2013-01-16 20:15:00,48.1,47.6,30.01,WSW,239,0.0,0.0,98,0.00,,,0.00,Wunderground v.1.15,2013-01-17 01:15:00,
2013-01-16 20:20:00,48.1,47.6,30.01,WSW,239,0.0,0.0,98,0.00,,,0.00,Wunderground v.1.15,2013-01-17 01:20:00,
2013-01-16 20:25:00,48.1,47.6,30.02,WSW,239,0.0,0.0,98,0.00,,,0.00,Wunderground v.1.15,2013-01-17 01:25:00,
2013-01-16 20:30:00,48.1,47.6,30.02,WSW,239,0.0,0.0,98,0.00,,,0.00,Wunderground v.1.15,2013-01-17 01:30:00,
2013-01-16 20:35:00,48.1,47.6,30.02,WSW,239,0.0,0.0,98,0.00,,,0.00,Wunderground v.1.15,2013-01-17 01:35:00,
2013-01-16 20:40:00,48.1,47.6,30.02,WSW,239,0.0,0.0,98,0.00,,,0.00,Wunderground v.1.15,2013-01-17 01:40:00,
2013-01-16 20:45:00,48.1,47.6,30.03,WSW,239,0.0,0.0,98,0.00,,,0.00,Wunderground v.1.15,2013-01-17 01:45:00,
2013-01-16 20:50:00,48.1,47.6,30.03,WSW,239,0.0,0.0,98,0.00,,,0.00,Wunderground v.1.15,2013-01-17 01:50:00,
2013-01-16 21:00:00,48.1,47.6,30.03,WSW,239,0.0,0.0,98,0.00,,,0.00,Wunderground v.1.15,2013-01-17 02:00:00,
2013-01-16 21:05:00,48.1,47.6,30.02,WSW,239,0.0,0.0,98,0.00,,,0.00,Wunderground v.1.15,2013-01-17 02:05:00,
2013-01-16 21:10:00,48.1,47.6,30.02,WSW,239,0.0,0.0,98,0.00,,,0.00,Wunderground v.1.15,2013-01-17 02:10:00,
2013-01-16 21:15:00,48.2,47.7,30.02,WSW,239,0.0,0.0,98,0.00,,,0.00,Wunderground v.1.15,2013-01-17 02:15:00,
2013-01-16 21:20:00,48.2,47.7,30.02,WSW,239,0.0,0.0,98,0.00,,,0.00,Wunderground v.1.15,2013-01-17 02:20:00,
2013-01-16 21:25:00,48.2,47.7,30.02,WSW,239,0.0,0.0,98,0.00,,,0.00,Wunderground v.1.15,2013-01-17 02:25:00,
2013-01-16 21:30:00,48.2,47.7,30.02,WSW,239,0.0,0.0,98,0.00,,,0.00,Wunderground v.1.15,2013-01-17 02:30:00,
2013-01-16 21:35:00,48.2,47.7,30.02,WSW,239,0.0,0.0,98,0.00,,,0.00,Wunderground v.1.15,2013-01-17 02:35:00,
2013-01-16 21:40:00,48.2,47.7,30.01,WSW,239,0.0,0.0,98,0.00,,,0.00,Wunderground v.1.15,2013-01-17 02:40:00,
2013-01-16 21:45:00,48.2,47.7,30.01,WSW,239,0.0,0.0,98,0.00,,,0.00,Wunderground v.1.15,2013-01-17 02:45:00,
2013-01-16 21:50:00,48.2,47.7,30.01,WSW,239,0.0,0.0,98,0.00,,,0.00,Wunderground v.1.15,2013-01-17 02:50:00,
2013-01-16 21:55:00,48.2,47.7,30.01,WSW,239,0.0,0.0,98,0.00,,,0.00,Wunderground v.1.15,2013-01-17 02:55:00,
2013-01-16 22:00:00,48.2,47.7,30.01,WSW,239,0.0,0.0,98,0.00,,,0.00,Wunderground v.1.15,2013-01-17 03:00:00,
2013-01-16 22:05:00,48.3,47.8,30.01,WSW,239,0.0,0.0,98,0.00,,,0.00,Wunderground v.1.15,2013-01-17 03:05:00,
2013-01-16 22:10:00,48.3,47.8,30.00,WSW,239,0.0,0.0,98,0.00,,,0.00,Wunderground v.1.15,2013-01-17 03:10:00,
2013-01-16 22:20:00,48.4,47.9,30.00,WSW,239,0.0,0.0,98,0.00,,,0.00,Wunderground v.1.15,2013-01-17 03:20:00,
2013-01-16 22:30:00,48.3,47.8,30.00,WSW,239,0.0,0.0,98,0.00,,,0.00,Wunderground v.1.15,2013-01-17 03:30:00,
2013-01-16 22:35:00,48.4,47.9,30.00,WSW,239,0.0,0.0,98,0.00,,,0.00,Wunderground v.1.15,2013-01-17 03:35:00,
2013-01-16 22:40:00,48.4,47.9,29.99,WSW,239,0.0,0.0,98,0.00,,,0.00,Wunderground v.1.15,2013-01-17 03:40:00,
2013-01-16 22:45:00,48.5,48.0,29.99,WSW,239,0.0,0.0,98,0.00,,,0.00,Wunderground v.1.15,2013-01-17 03:45:00,
2013-01-16 22:50:00,48.5,48.0,29.99,WSW,239,0.0,0.0,98,0.00,,,0.00,Wunderground v.1.15,2013-01-17 03:50:00,
2013-01-16 22:55:00,48.6,48.1,29.99,WSW,239,0.0,0.0,98,0.00,,,0.00,Wunderground v.1.15,2013-01-17 03:55:00,
2013-01-16 23:00:00,48.6,48.1,29.99,WSW,239,0.0,0.0,98,0.00,,,0.00,Wunderground v.1.15,2013-01-17 04:00:00,
2013-01-16 23:05:00,48.6,48.1,29.99,WSW,239,0.0,0.0,98,0.00,,,0.00,Wunderground v.1.15,2013-01-17 04:05:00,
2013-01-16 23:10:00,48.6,48.1,29.99,WSW,239,0.0,0.0,98,0.00,,,0.00,Wunderground v.1.15,2013-01-17 04:10:00,
2013-01-16 23:20:00,48.8,48.3,29.99,WSW,239,0.0,0.0,98,0.00,,,0.00,Wunderground v.1.15,2013-01-17 04:20:00,
2013-01-16 23:25:00,48.9,48.4,29.99,WSW,239,0.0,0.0,98,0.00,,,0.00,Wunderground v.1.15,2013-01-17 04:25:00,
2013-01-16 23:30:00,48.9,48.4,29.99,WSW,239,0.0,0.0,98,0.00,,,0.00,Wunderground v.1.15,2013-01-17 04:30:00,
2013-01-16 23:35:00,49.0,48.5,29.99,WSW,239,0.0,0.0,98,0.00,,,0.00,Wunderground v.1.15,2013-01-17 04:35:00,
2013-01-16 23:40:00,49.0,48.5,29.99,WSW,239,0.0,0.0,98,0.00,,,0.00,Wunderground v.1.15,2013-01-17 04:40:00,
2013-01-16 23:45:00,49.1,48.6,29.99,WSW,239,0.0,0.0,98,0.00,,,0.00,Wunderground v.1.15,2013-01-17 04:45:00,
2013-01-16 23:50:00,49.2,48.7,30.00,WSW,239,0.0,0.0,98,0.00,,,0.00,Wunderground v.1.15,2013-01-17 04:50:00,
2013-01-16 23:55:00,49.2,48.7,30.00,WSW,239,0.0,0.0,98,0.00,,,0.00,Wunderground v.1.15,2013-01-17 04:55:00,